Time;durP1;ratioP1;P1;durP2;ratioP2;P2;SDS_P1;SDS_P2;PMS_P1;PMS_P2;Temp;Humidity;BMP_temperature;BMP_pressure;BME280_temperature;BME280_humidity;BME280_pressure;Samples;Min_cycle;Max_cycle;Signal;HPM_P1;HPM_P2
2021/05/27 00:00:25;;;;;;;9.57;6.30;;;;;;;10.81;80.96;101010.56;5046451;28;20045;-68
2021/05/27 00:02:51;;;;;;;13.27;6.75;;;;;;;10.84;80.32;101017.47;5042422;28;20073;-66
2021/05/27 00:05:17;;;;;;;9.18;6.35;;;;;;;10.88;80.27;101021.72;5041830;28;20111;-67
2021/05/27 00:07:44;;;;;;;8.68;6.55;;;;;;;10.92;80.36;101014.75;5039359;28;20057;-67
2021/05/27 00:10:12;;;;;;;13.05;7.68;;;;;;;10.93;79.90;101013.88;5046463;28;20071;-67
2021/05/27 00:12:39;;;;;;;17.80;9.10;;;;;;;10.85;80.41;101017.41;5034673;28;20092;-69
2021/05/27 00:15:07;;;;;;;15.60;9.10;;;;;;;10.95;80.18;101009.47;5043112;28;20045;-68
2021/05/27 00:17:33;;;;;;;14.65;9.80;;;;;;;11.01;80.11;101011.97;5040802;28;20505;-68
2021/05/27 00:19:59;;;;;;;15.18;10.23;;;;;;;10.98;79.66;101010.28;5040076;28;20045;-67
2021/05/27 00:22:25;;;;;;;15.02;11.00;;;;;;;10.95;80.33;101017.28;5047505;28;20045;-67
2021/05/27 00:24:51;;;;;;;16.25;11.15;;;;;;;10.96;80.09;101016.38;5034447;28;20049;-68
2021/05/27 00:27:17;;;;;;;14.48;11.63;;;;;;;10.92;79.66;101015.59;5039417;28;20120;-67
2021/05/27 00:29:44;;;;;;;21.13;10.85;;;;;;;11.01;79.71;101019.78;5042744;28;20045;-67
2021/05/27 00:32:10;;;;;;;17.85;12.35;;;;;;;11.06;79.18;101025.75;5045099;28;20042;-68
2021/05/27 00:34:36;;;;;;;17.75;11.18;;;;;;;10.96;79.89;101026.81;5042337;28;20053;-68
2021/05/27 00:37:02;;;;;;;18.15;12.90;;;;;;;10.95;80.00;101025.97;5048387;28;20045;-67
2021/05/27 00:39:28;;;;;;;16.33;11.15;;;;;;;10.80;80.91;101016.66;5052504;28;20446;-69
2021/05/27 00:41:54;;;;;;;17.15;11.50;;;;;;;10.89;80.44;101026.91;5044313;28;20140;-67
2021/05/27 00:44:22;;;;;;;19.83;11.27;;;;;;;10.87;80.92;101033.03;5041880;28;20457;-67
2021/05/27 00:46:49;;;;;;;17.75;11.02;;;;;;;10.91;79.98;101033.84;5041099;28;20045;-68
2021/05/27 00:49:15;;;;;;;19.17;11.48;;;;;;;10.84;80.72;101031.31;5046599;28;20053;-66
2021/05/27 00:51:43;;;;;;;17.30;10.82;;;;;;;10.89;80.69;101026.91;5048024;28;20048;-68
2021/05/27 00:54:10;;;;;;;13.85;11.02;;;;;;;10.87;80.71;101033.03;5051103;28;20464;-67
2021/05/27 00:56:36;;;;;;;19.95;10.38;;;;;;;10.95;80.36;101028.56;5043600;28;20041;-69
2021/05/27 00:59:02;;;;;;;13.82;8.98;;;;;;;10.97;80.14;101033.72;5046634;28;20410;-68
2021/05/27 01:01:29;;;;;;;13.95;9.93;;;;;;;10.97;80.30;101031.13;5037956;28;20056;-68
2021/05/27 01:03:56;;;;;;;18.45;9.48;;;;;;;10.92;80.34;101025.16;5041617;28;20377;-68
2021/05/27 01:06:21;;;;;;;16.02;10.48;;;;;;;10.93;80.34;101034.69;5048029;28;20052;-67
2021/05/27 01:08:47;;;;;;;16.55;9.68;;;;;;;10.93;80.64;101037.28;5051147;28;20435;-68
2021/05/27 01:11:15;;;;;;;14.40;9.07;;;;;;;10.98;80.10;101038.06;5045051;28;20430;-67
2021/05/27 01:13:41;;;;;;;15.65;9.15;;;;;;;10.97;80.14;101028.53;5044779;28;20113;-67
2021/05/27 01:16:12;;;;;;;14.35;8.57;;;;;;;10.92;80.43;101030.34;5039573;28;20465;-67
2021/05/27 01:18:38;;;;;;;11.15;8.00;;;;;;;10.89;80.74;101031.25;5037093;28;20041;-67
2021/05/27 01:21:05;;;;;;;15.85;8.25;;;;;;;10.84;80.96;101038.28;5047065;28;20128;-68
2021/05/27 01:23:32;;;;;;;17.55;7.78;;;;;;;10.85;80.91;101037.41;5045684;28;20045;-68
2021/05/27 01:25:59;;;;;;;15.10;7.82;;;;;;;10.89;81.14;101034.72;5044574;28;20118;-68
2021/05/27 01:28:29;;;;;;;12.35;7.53;;;;;;;10.86;80.84;101026.94;5049333;28;20049;-68
2021/05/27 01:30:56;;;;;;;11.25;7.53;;;;;;;10.83;81.25;101034.78;5048173;28;20127;-67
2021/05/27 01:33:22;;;;;;;10.68;7.32;;;;;;;10.86;80.91;101036.50;5044670;28;20050;-68
2021/05/27 01:35:48;;;;;;;15.02;7.60;;;;;;;10.86;81.18;101037.38;5045843;28;20482;-67
2021/05/27 01:38:16;;;;;;;12.00;6.72;;;;;;;10.83;81.26;101036.56;5042495;28;20392;-68
2021/05/27 01:40:43;;;;;;;13.27;6.93;;;;;;;10.82;80.84;101040.91;5045856;28;20052;-68
2021/05/27 01:43:10;;;;;;;12.05;6.78;;;;;;;10.79;81.05;101040.94;5041488;28;20515;-67
2021/05/27 01:45:37;;;;;;;15.20;6.57;;;;;;;10.81;81.32;101038.31;5089966;22;20047;-64
2021/05/27 01:48:03;;;;;;;11.27;6.40;;;;;;;10.86;81.00;101041.72;5074104;28;20577;-63
2021/05/27 01:50:30;;;;;;;10.82;6.25;;;;;;;10.88;81.69;101043.41;5089985;28;20444;-63
2021/05/27 01:52:57;;;;;;;13.02;6.07;;;;;;;10.84;82.06;101040.88;5078664;28;20056;-63
2021/05/27 01:55:24;;;;;;;11.82;6.53;;;;;;;10.87;81.87;101038.25;5083478;28;20048;-63
2021/05/27 01:57:51;;;;;;;11.40;6.22;;;;;;;10.69;82.97;101042.81;5082387;28;20044;-62
2021/05/27 02:00:18;;;;;;;21.52;6.93;;;;;;;10.67;82.81;101047.22;5085557;28;20048;-63
2021/05/27 02:02:44;;;;;;;12.20;7.60;;;;;;;10.66;83.03;101047.22;5085870;28;20044;-63
2021/05/27 02:05:10;;;;;;;14.40;7.07;;;;;;;10.72;82.91;101052.34;5088331;28;20051;-62
2021/05/27 02:07:36;;;;;;;12.30;6.97;;;;;;;10.75;83.09;101065.28;5087398;28;20071;-62
2021/05/27 02:10:04;;;;;;;15.48;7.68;;;;;;;10.63;83.57;101044.66;5081114;28;20077;-65
2021/05/27 02:12:29;;;;;;;13.82;7.53;;;;;;;10.69;82.57;101054.97;5078894;28;20052;-65
2021/05/27 02:14:56;;;;;;;11.80;6.43;;;;;;;10.73;82.38;101056.63;5086756;28;20048;-63
2021/05/27 02:17:22;;;;;;;14.50;7.10;;;;;;;10.71;82.66;101054.06;5079405;28;20060;-63
2021/05/27 02:19:48;;;;;;;16.08;7.00;;;;;;;10.58;81.04;101049.94;5083130;28;20048;-63
2021/05/27 02:22:14;;;;;;;19.75;8.10;;;;;;;10.51;81.02;101050.88;5085167;28;20127;-63
2021/05/27 02:24:40;;;;;;;15.13;7.72;;;;;;;10.48;80.98;101045.75;5081073;28;20622;-62
2021/05/27 02:27:07;;;;;;;18.52;8.40;;;;;;;10.51;80.49;101048.28;5084814;28;20449;-63
2021/05/27 02:29:33;;;;;;;14.40;7.75;;;;;;;10.51;81.32;101067.38;5078476;28;20051;-64
2021/05/27 02:32:00;;;;;;;20.88;8.88;;;;;;;10.56;80.89;101054.28;5081053;28;20121;-64
2021/05/27 02:34:26;;;;;;;17.15;8.77;;;;;;;10.56;80.25;101060.34;5085837;28;20052;-61
2021/05/27 02:36:52;;;;;;;22.15;10.27;;;;;;;10.60;80.28;101055.97;5083047;28;20055;-63
2021/05/27 02:39:18;;;;;;;20.75;9.38;;;;;;;10.60;79.44;101062.91;5080066;28;20048;-61
2021/05/27 02:41:44;;;;;;;19.67;9.95;;;;;;;10.55;80.10;101063.81;5082803;28;20079;-63
2021/05/27 02:44:10;;;;;;;19.52;10.77;;;;;;;10.53;79.33;101070.78;5086120;28;20059;-64
2021/05/27 02:46:36;;;;;;;18.60;11.23;;;;;;;10.55;78.88;101069.03;5102030;28;20051;-64
2021/05/27 02:49:05;;;;;;;20.83;11.82;;;;;;;10.53;78.71;101068.19;5105844;28;20461;-65
2021/05/27 02:51:31;;;;;;;33.75;13.95;;;;;;;10.50;78.12;101069.97;5101497;28;20496;-63
2021/05/27 02:53:57;;;;;;;27.08;13.98;;;;;;;10.45;79.10;101062.22;5103519;28;20048;-61
2021/05/27 02:56:23;;;;;;;29.67;15.27;;;;;;;10.49;78.81;101073.44;5098838;28;20047;-63
2021/05/27 02:58:49;;;;;;;33.25;14.50;;;;;;;10.34;79.52;101071.88;5098516;28;20098;-63
2021/05/27 03:01:15;;;;;;;26.77;15.73;;;;;;;10.34;79.55;101070.16;5101128;28;20573;-63
2021/05/27 03:03:41;;;;;;;24.55;13.35;;;;;;;10.39;79.25;101075.31;5108359;28;20071;-64
2021/05/27 03:06:08;;;;;;;25.35;14.20;;;;;;;10.41;79.56;101076.16;5107868;28;20052;-63
2021/05/27 03:08:36;;;;;;;24.20;13.50;;;;;;;10.31;79.66;101079.75;5102136;28;20065;-64
2021/05/27 03:11:02;;;;;;;35.15;13.77;;;;;;;10.32;79.45;101082.31;5101986;28;20051;-63
2021/05/27 03:13:28;;;;;;;26.70;13.65;;;;;;;10.39;78.93;101081.38;5097360;28;20116;-62
2021/05/27 03:15:54;;;;;;;26.02;13.68;;;;;;;10.37;79.37;101084.84;5106533;28;20055;-62
2021/05/27 03:18:20;;;;;;;22.33;13.50;;;;;;;10.34;79.90;101090.06;5101713;28;20263;-63
2021/05/27 03:20:46;;;;;;;22.83;13.50;;;;;;;10.35;78.86;101095.28;5097443;28;20513;-63
2021/05/27 03:23:14;;;;;;;28.30;15.23;;;;;;;10.32;79.16;101089.25;5098646;28;20036;-63
2021/05/27 03:25:40;;;;;;;24.92;13.77;;;;;;;10.27;79.17;101095.38;5101941;28;20130;-62
2021/05/27 03:28:06;;;;;;;27.00;14.95;;;;;;;10.28;79.28;101106.66;5103199;28;20049;-61
2021/05/27 03:30:33;;;;;;;31.90;15.52;;;;;;;10.21;80.11;101110.16;5101046;28;20050;-62
2021/05/27 03:32:59;;;;;;;29.45;14.77;;;;;;;10.24;80.56;101108.41;5100414;28;20425;-64
2021/05/27 03:35:25;;;;;;;29.05;16.92;;;;;;;10.13;80.78;101107.69;5099731;28;20051;-62
2021/05/27 03:37:51;;;;;;;32.47;16.08;;;;;;;10.10;81.11;101103.34;5104924;28;20043;-64
2021/05/27 03:40:18;;;;;;;35.17;16.42;;;;;;;10.11;80.89;101109.44;5099714;28;20054;-63
2021/05/27 03:42:46;;;;;;;33.15;16.08;;;;;;;10.08;81.15;101101.66;5099347;28;20047;-62
2021/05/27 03:45:14;;;;;;;33.03;16.30;;;;;;;10.05;80.98;101110.34;5103038;28;20051;-60
2021/05/27 03:47:41;;;;;;;33.92;16.77;;;;;;;10.03;81.48;101111.25;5102709;28;20466;-63
2021/05/27 03:50:09;;;;;;;31.30;15.93;;;;;;;10.09;81.31;101109.44;5103392;28;24376;-61
2021/05/27 03:52:35;;;;;;;32.65;16.70;;;;;;;10.01;81.57;101113.00;5104304;28;20050;-62
2021/05/27 03:55:01;;;;;;;31.33;17.10;;;;;;;10.04;82.20;101118.16;5102560;28;20039;-63
2021/05/27 03:57:28;;;;;;;32.58;16.95;;;;;;;10.01;81.85;101118.22;5097987;28;20047;-63
2021/05/27 04:02:45;;;;;;;36.00;15.82;;;;;;;9.84;81.31;101119.22;5085040;28;20126;-63
2021/05/27 04:07:56;;;;;;;34.55;15.98;;;;;;;9.83;82.51;101124.44;5098021;28;20373;-63
2021/05/27 04:10:22;;;;;;;35.05;15.38;;;;;;;9.86;82.04;101124.44;5105962;28;20131;-58
2021/05/27 04:12:49;;;;;;;31.80;14.30;;;;;;;9.84;81.93;101131.38;5105779;28;20108;-62
2021/05/27 04:15:20;;;;;;;40.15;15.07;;;;;;;9.78;82.23;101129.69;5105029;28;20421;-63
2021/05/27 04:17:46;;;;;;;33.20;14.85;;;;;;;9.80;83.31;101131.38;5108225;28;20472;-63
2021/05/27 04:20:13;;;;;;;37.25;15.68;;;;;;;9.73;83.07;101136.69;5103811;27;20055;-63
2021/05/27 04:22:40;;;;;;;31.13;15.60;;;;;;;9.70;83.46;101131.50;5104454;28;20051;-63
2021/05/27 04:25:06;;;;;;;32.38;16.20;;;;;;;9.77;82.86;101140.94;5102737;28;20059;-63
2021/05/27 04:27:32;;;;;;;31.77;15.52;;;;;;;9.72;83.62;101143.59;5106839;28;20111;-63
2021/05/27 04:30:12;;;;;;;32.13;15.57;;;;;;;9.78;84.05;101142.69;5108818;28;20040;-63
2021/05/27 04:32:54;;;;;;;39.17;16.15;;;;;;;9.70;84.34;101141.91;5105130;28;20100;-61
2021/05/27 04:35:21;;;;;;;37.10;16.73;;;;;;;9.70;83.96;101141.91;5106683;28;20683;-62
2021/05/27 04:37:47;;;;;;;33.80;17.23;;;;;;;9.79;84.21;101149.59;5103363;28;20047;-62
2021/05/27 04:40:14;;;;;;;37.22;19.30;;;;;;;9.75;84.27;101147.91;5105047;28;20043;-64
2021/05/27 04:42:40;;;;;;;44.67;20.55;;;;;;;9.73;83.97;101145.31;5105733;28;20495;-61
2021/05/27 04:45:08;;;;;;;36.85;20.35;;;;;;;9.68;84.39;101144.50;5107464;28;20051;-62
2021/05/27 04:47:34;;;;;;;42.83;20.45;;;;;;;9.67;83.93;101147.97;5104263;28;20051;-63
2021/05/27 04:50:00;;;;;;;42.47;22.10;;;;;;;9.69;84.67;101156.59;5105663;28;20048;-63
2021/05/27 04:52:26;;;;;;;41.50;21.33;;;;;;;9.67;84.58;101160.09;5106104;28;20088;-62
2021/05/27 04:54:52;;;;;;;42.05;21.27;;;;;;;9.67;84.98;101157.50;5104937;28;20051;-63
2021/05/27 04:57:18;;;;;;;39.65;22.15;;;;;;;9.68;84.42;101162.69;5106381;28;20055;-64
2021/05/27 04:59:44;;;;;;;43.80;22.00;;;;;;;9.69;85.23;101168.75;5103772;28;20052;-62
2021/05/27 05:02:10;;;;;;;44.28;21.90;;;;;;;9.69;84.45;101168.75;5100648;27;20279;-63
2021/05/27 05:04:36;;;;;;;39.30;22.20;;;;;;;9.71;84.56;101167.00;5106928;28;20078;-59
2021/05/27 05:07:02;;;;;;;48.25;23.13;;;;;;;9.72;85.26;101173.91;5105923;28;20051;-64
2021/05/27 05:09:28;;;;;;;44.58;23.00;;;;;;;9.73;85.18;101173.03;5102484;28;20691;-62
2021/05/27 05:11:54;;;;;;;36.60;20.52;;;;;;;9.74;84.89;101173.03;5102994;28;20039;-59
2021/05/27 05:14:20;;;;;;;35.47;21.15;;;;;;;9.77;84.45;101173.00;5108373;28;20056;-59
2021/05/27 05:16:46;;;;;;;40.05;23.13;;;;;;;9.74;84.56;101177.34;5107026;28;20046;-62
2021/05/27 05:19:13;;;;;;;36.60;19.85;;;;;;;9.68;84.92;101173.09;5103820;28;20144;-61
2021/05/27 05:21:39;;;;;;;36.55;19.60;;;;;;;9.73;85.09;101178.25;5101097;28;20043;-62
2021/05/27 05:24:06;;;;;;;39.03;21.25;;;;;;;9.72;84.92;101179.97;5103761;28;20535;-59
2021/05/27 05:26:32;;;;;;;34.60;19.00;;;;;;;9.74;85.37;101182.53;5104852;28;20054;-62
2021/05/27 05:28:58;;;;;;;38.30;20.63;;;;;;;9.83;84.76;101184.19;5103848;28;20052;-64
2021/05/27 05:31:24;;;;;;;43.58;21.83;;;;;;;9.76;85.71;101179.06;5104088;28;20043;-64
2021/05/27 05:33:54;;;;;;;43.75;22.83;;;;;;;9.73;85.36;101186.88;5106662;28;20100;-61
2021/05/27 05:36:21;;;;;;;39.92;22.08;;;;;;;9.79;85.30;101184.22;5099053;28;20064;-63
2021/05/27 05:38:47;;;;;;;35.85;22.00;;;;;;;9.81;85.05;101189.41;5099884;28;20047;-63
2021/05/27 05:41:13;;;;;;;42.63;22.73;;;;;;;9.73;85.23;101186.03;5107120;28;20074;-60
2021/05/27 05:43:39;;;;;;;42.83;21.58;;;;;;;9.76;84.80;101193.78;5109222;27;20140;-61
2021/05/27 05:46:05;;;;;;;42.20;21.23;;;;;;;9.77;85.03;101186.00;5105809;27;20068;-63
2021/05/27 05:48:32;;;;;;;40.05;22.23;;;;;;;9.77;84.72;101186.00;5106540;28;20071;-62
2021/05/27 05:50:59;;;;;;;36.10;20.70;;;;;;;9.77;85.11;101190.31;5110041;28;20048;-63
2021/05/27 05:53:26;;;;;;;37.42;21.45;;;;;;;9.74;84.92;101193.81;5101780;27;20054;-63
2021/05/27 05:55:54;;;;;;;39.33;21.13;;;;;;;9.72;84.58;101198.16;5104046;28;20572;-62
2021/05/27 05:58:20;;;;;;;38.42;22.92;;;;;;;9.77;84.91;101198.09;5105995;28;20521;-64
2021/05/27 06:00:47;;;;;;;46.70;23.30;;;;;;;9.75;85.58;101199.84;5100715;28;20055;-63
2021/05/27 06:03:13;;;;;;;37.45;22.45;;;;;;;9.79;85.67;101201.56;5100375;27;20101;-64
2021/05/27 06:05:39;;;;;;;38.58;21.15;;;;;;;9.64;84.87;101193.00;5103393;28;20048;-62
2021/05/27 06:08:06;;;;;;;37.08;21.77;;;;;;;9.69;85.38;101192.97;5099454;28;20135;-62
2021/05/27 06:10:32;;;;;;;37.75;21.73;;;;;;;9.74;85.92;101196.41;5097609;28;20800;-60
2021/05/27 06:12:58;;;;;;;40.40;20.33;;;;;;;9.82;85.80;101201.53;5101440;28;20048;-61
2021/05/27 06:15:25;;;;;;;34.55;20.13;;;;;;;9.88;85.78;101200.63;5100871;27;20123;-60
2021/05/27 06:17:52;;;;;;;40.20;22.02;;;;;;;9.85;85.36;101204.09;5104215;28;20040;-64
2021/05/27 06:20:19;;;;;;;33.08;19.50;;;;;;;9.77;85.01;101213.69;5102498;28;20796;-63
2021/05/27 06:22:46;;;;;;;37.33;20.75;;;;;;;9.78;85.25;101207.63;5107263;28;20048;-59
2021/05/27 06:25:12;;;;;;;38.17;19.77;;;;;;;9.74;84.97;101213.72;5099953;28;20059;-61
2021/05/27 06:27:40;;;;;;;34.88;19.35;;;;;;;9.79;85.55;101217.16;5099321;28;20066;-62
2021/05/27 06:30:07;;;;;;;34.35;19.10;;;;;;;9.80;84.33;101213.69;5104712;28;20063;-64
2021/05/27 06:32:36;;;;;;;25.77;17.05;;;;;;;9.79;84.87;101214.56;5101885;28;20044;-62
2021/05/27 06:35:03;;;;;;;33.88;18.58;;;;;;;9.85;85.46;101216.25;5105663;28;20047;-66
2021/05/27 06:37:29;;;;;;;37.38;19.08;;;;;;;9.87;85.22;101217.09;5101189;28;20051;-62
2021/05/27 06:39:55;;;;;;;30.83;17.25;;;;;;;9.90;84.68;101222.25;5096180;28;20043;-64
2021/05/27 06:42:21;;;;;;;31.40;16.65;;;;;;;9.85;85.06;101219.69;5100810;28;20431;-56
2021/05/27 06:44:48;;;;;;;30.95;16.33;;;;;;;9.89;84.75;101220.50;5105075;28;20470;-59
2021/05/27 06:47:14;;;;;;;32.30;15.40;;;;;;;9.88;84.89;101222.25;5100177;28;20052;-62
2021/05/27 06:49:41;;;;;;;27.65;15.68;;;;;;;9.91;84.83;101219.66;5104710;28;20060;-60
2021/05/27 06:52:07;;;;;;;28.15;14.98;;;;;;;9.88;85.48;101217.06;5103703;28;20051;-61
2021/05/27 06:54:36;;;;;;;28.70;15.02;;;;;;;9.92;84.99;101228.28;5107609;28;20059;-64
2021/05/27 06:57:02;;;;;;;32.03;15.25;;;;;;;9.84;84.75;101220.56;5099534;28;20112;-63
2021/05/27 06:59:28;;;;;;;29.45;13.88;;;;;;;9.86;85.04;101224.00;5100583;28;20059;-62
2021/05/27 07:01:55;;;;;;;32.65;13.73;;;;;;;9.90;85.22;101223.13;5100269;27;20047;-62
2021/05/27 07:04:21;;;;;;;26.58;12.50;;;;;;;9.96;85.25;101235.19;5102938;28;20051;-62
2021/05/27 07:06:47;;;;;;;28.85;13.73;;;;;;;10.02;85.39;101229.09;5098945;27;20047;-62
2021/05/27 07:09:14;;;;;;;29.33;12.98;;;;;;;10.05;84.88;101234.25;5097501;28;20479;-65
2021/05/27 07:11:40;;;;;;;23.60;12.48;;;;;;;10.13;84.85;101236.78;5103505;28;20054;-62
2021/05/27 07:14:06;;;;;;;23.85;11.45;;;;;;;10.13;85.15;101234.19;5103738;28;20138;-63
2021/05/27 07:16:32;;;;;;;24.30;10.60;;;;;;;10.14;84.81;101231.56;5098497;28;20043;-61
2021/05/27 07:18:59;;;;;;;23.83;11.40;;;;;;;10.13;85.10;101234.19;5100206;28;20093;-60
2021/05/27 07:21:25;;;;;;;23.77;10.60;;;;;;;10.09;84.83;101241.16;5105257;28;20058;-62
2021/05/27 07:23:51;;;;;;;18.38;9.82;;;;;;;10.19;84.68;101240.19;5099576;28;20485;-61
2021/05/27 07:26:17;;;;;;;19.75;9.82;;;;;;;10.13;84.76;101242.84;5098693;28;20159;-60
2021/05/27 07:28:43;;;;;;;21.20;9.13;;;;;;;10.14;84.47;101238.50;5106214;28;20192;-62
2021/05/27 07:31:09;;;;;;;20.88;10.00;;;;;;;10.13;84.75;101240.25;5100802;28;20068;-64
2021/05/27 07:33:35;;;;;;;26.40;10.63;;;;;;;10.10;85.55;101248.06;5093967;28;20047;-61
2021/05/27 07:36:04;;;;;;;24.02;9.70;;;;;;;10.11;85.01;101235.03;5102987;28;20051;-62
2021/05/27 07:38:30;;;;;;;16.92;9.10;;;;;;;10.05;84.46;101242.03;5100272;28;20062;-61
2021/05/27 07:40:57;;;;;;;24.52;10.27;;;;;;;10.00;85.03;101244.69;5099026;28;20039;-65
2021/05/27 07:43:22;;;;;;;24.60;10.35;;;;;;;10.04;85.60;101241.19;5093705;28;20044;-61
2021/05/27 07:45:48;;;;;;;25.45;10.57;;;;;;;10.04;85.39;101250.69;5096152;28;20056;-63
2021/05/27 07:48:14;;;;;;;22.88;10.38;;;;;;;10.17;85.73;101248.88;5109848;28;20039;-65
2021/05/27 07:50:40;;;;;;;23.63;10.60;;;;;;;10.26;84.52;101260.03;5105455;27;20058;-64
2021/05/27 07:53:09;;;;;;;23.92;9.98;;;;;;;10.23;84.69;101256.63;5107036;28;20067;-63
2021/05/27 07:55:35;;;;;;;22.80;10.30;;;;;;;10.22;84.33;101258.38;5102984;28;20135;-63
2021/05/27 07:58:01;;;;;;;16.98;10.20;;;;;;;10.17;84.97;101256.69;5106389;28;20524;-63
2021/05/27 08:00:27;;;;;;;26.02;12.82;;;;;;;10.12;85.26;101256.72;5099937;28;20048;-65
2021/05/27 08:02:53;;;;;;;21.67;10.75;;;;;;;10.22;84.87;101262.69;5105588;28;20101;-62
2021/05/27 08:05:20;;;;;;;24.35;11.10;;;;;;;10.21;85.52;101261.84;5102283;28;20943;-63
2021/05/27 08:07:47;;;;;;;22.08;11.18;;;;;;;10.25;85.26;101263.50;5105153;28;20050;-61
2021/05/27 08:10:14;;;;;;;20.50;9.93;;;;;;;10.31;85.29;101267.78;5104035;28;20488;-64
2021/05/27 08:12:40;;;;;;;20.60;10.73;;;;;;;10.38;85.23;101263.44;5106096;28;20048;-63
2021/05/27 08:15:07;;;;;;;16.65;9.55;;;;;;;10.49;85.09;101266.78;5102781;28;20051;-65
2021/05/27 08:17:33;;;;;;;20.05;8.88;;;;;;;10.64;84.09;101270.09;5100804;28;20048;-58
2021/05/27 08:20:00;;;;;;;26.17;11.45;;;;;;;10.63;83.86;101263.19;5103000;28;20047;-58
2021/05/27 08:22:27;;;;;;;19.15;8.38;;;;;;;10.64;83.85;101270.09;5106197;27;20040;-64
2021/05/27 08:24:53;;;;;;;24.13;9.15;;;;;;;10.75;83.96;101264.78;5098621;28;20054;-63
2021/05/27 08:27:20;;;;;;;24.23;9.57;;;;;;;10.81;83.48;101270.78;5099255;27;20462;-63
2021/05/27 08:29:46;;;;;;;20.42;9.38;;;;;;;10.79;83.29;101269.94;5098632;28;20058;-66
2021/05/27 08:32:12;;;;;;;19.90;8.90;;;;;;;10.83;83.47;101282.00;5103214;28;20052;-66
2021/05/27 08:34:39;;;;;;;19.95;9.32;;;;;;;10.80;83.28;101276.88;5102110;28;20048;-62
2021/05/27 08:37:05;;;;;;;21.35;8.88;;;;;;;10.77;83.35;101289.91;5101390;28;20060;-66
2021/05/27 08:39:31;;;;;;;21.15;9.40;;;;;;;10.64;84.27;101288.31;5106377;28;20742;-65
2021/05/27 08:41:57;;;;;;;19.08;9.20;;;;;;;10.60;83.95;101282.28;5102477;27;20052;-64
2021/05/27 08:44:24;;;;;;;17.85;8.98;;;;;;;10.63;83.86;101286.59;5105396;27;20535;-65
2021/05/27 08:46:50;;;;;;;18.88;8.77;;;;;;;10.46;83.67;101298.03;5098351;28;20070;-64
2021/05/27 08:49:16;;;;;;;20.55;9.77;;;;;;;10.40;84.39;101293.75;5098896;28;20138;-66
2021/05/27 08:51:43;;;;;;;16.85;9.27;;;;;;;10.47;83.85;101294.53;5101923;28;20417;-66
2021/05/27 08:54:09;;;;;;;19.73;9.70;;;;;;;10.49;84.05;101300.59;5105936;28;20044;-65
2021/05/27 08:56:35;;;;;;;17.48;9.73;;;;;;;10.46;84.22;101300.63;5100631;27;20047;-66
2021/05/27 08:59:01;;;;;;;17.15;9.70;;;;;;;10.50;84.75;101307.53;5102028;27;20069;-65
2021/05/27 09:01:29;;;;;;;21.17;9.70;;;;;;;10.38;85.24;101305.88;5101897;28;20043;-63
2021/05/27 09:03:54;;;;;;;20.88;10.93;;;;;;;10.36;84.92;101302.44;5099831;27;20452;-67
2021/05/27 09:06:21;;;;;;;22.10;11.60;;;;;;;10.37;85.12;101308.47;5102817;28;20053;-66
2021/05/27 09:08:48;;;;;;;19.85;11.55;;;;;;;10.26;85.01;101306.84;5103767;28;20047;-65
2021/05/27 09:11:15;;;;;;;19.00;10.88;;;;;;;10.31;85.17;101309.41;5100021;27;20496;-66
2021/05/27 09:13:52;;;;;;;19.42;12.07;;;;;;;10.19;86.12;101312.97;5101400;28;20039;-67
2021/05/27 09:16:18;;;;;;;19.77;11.10;;;;;;;10.25;84.95;101310.31;5099138;28;20048;-67
2021/05/27 09:18:45;;;;;;;23.70;10.35;;;;;;;10.23;85.66;101324.22;5098377;27;20043;-67
2021/05/27 09:21:13;;;;;;;21.27;10.32;;;;;;;10.22;85.59;101319.88;5104886;28;20137;-67
2021/05/27 09:23:47;;;;;;;23.30;10.52;;;;;;;10.20;85.51;101325.09;5102235;27;20052;-65
2021/05/27 09:26:15;;;;;;;20.48;9.95;;;;;;;10.22;85.80;101327.69;5099832;27;20044;-67
2021/05/27 09:28:42;;;;;;;17.52;10.38;;;;;;;10.26;85.14;101337.19;5104550;28;20051;-67
2021/05/27 09:31:10;;;;;;;21.63;11.27;;;;;;;10.22;85.84;101331.16;5103170;28;20073;-68
2021/05/27 09:33:38;;;;;;;21.73;10.05;;;;;;;10.30;86.34;101335.44;5095053;28;20040;-67
2021/05/27 09:36:07;;;;;;;26.92;10.98;;;;;;;10.42;86.33;101340.56;5106265;27;20361;-65
2021/05/27 09:38:35;;;;;;;19.00;10.45;;;;;;;10.64;86.20;101343.81;5104307;28;20044;-66
2021/05/27 09:41:14;;;;;;;20.92;10.00;;;;;;;10.77;84.63;101352.34;5102577;28;20044;-68
2021/05/27 09:43:40;;;;;;;19.70;10.45;;;;;;;10.75;84.71;101340.25;5105576;28;20394;-65
2021/05/27 09:46:07;;;;;;;19.50;10.35;;;;;;;10.79;84.97;101337.59;5107818;28;20063;-67
2021/05/27 09:48:34;;;;;;;18.90;10.13;;;;;;;10.84;85.29;101345.34;5105069;28;20159;-67
2021/05/27 09:51:01;;;;;;;15.25;8.00;;;;;;;11.00;83.30;101346.06;5100116;28;20116;-66
2021/05/27 09:53:31;;;;;;;14.98;8.85;;;;;;;11.21;83.48;101339.72;5101843;28;20051;-66
2021/05/27 09:55:58;;;;;;;17.10;8.07;;;;;;;11.34;82.56;101343.91;5101555;28;20063;-68
2021/05/27 09:58:25;;;;;;;16.45;8.55;;;;;;;11.49;81.72;101344.56;5108573;27;20108;-69
2021/05/27 10:00:53;;;;;;;20.65;8.60;;;;;;;11.58;82.22;101344.44;5092509;28;20058;-67
2021/05/27 10:03:28;;;;;;;15.55;7.45;;;;;;;11.66;80.96;101350.44;5100953;28;20417;-68
2021/05/27 10:05:55;;;;;;;15.60;6.57;;;;;;;11.61;79.99;101351.38;5101200;28;20051;-68
2021/05/27 10:08:21;;;;;;;16.15;7.10;;;;;;;11.52;80.65;101349.75;5104452;28;20048;-69
2021/05/27 10:10:48;;;;;;;14.52;6.60;;;;;;;11.48;81.23;101351.53;5101771;28;20054;-69
2021/05/27 10:13:16;;;;;;;14.48;7.07;;;;;;;11.50;81.74;101360.19;5099023;28;20040;-68
2021/05/27 10:15:44;;;;;;;16.20;6.93;;;;;;;11.44;80.96;101367.22;5099834;27;20077;-67
2021/05/27 10:18:14;;;;;;;15.90;6.88;;;;;;;11.46;80.50;101361.13;5098063;28;20052;-70
2021/05/27 10:20:41;;;;;;;12.20;6.85;;;;;;;11.27;80.60;101367.44;5099117;28;20398;-67
2021/05/27 10:23:07;;;;;;;13.02;6.78;;;;;;;11.21;82.48;101360.56;5102576;28;20538;-67
2021/05/27 10:25:33;;;;;;;13.73;6.65;;;;;;;11.22;81.04;101377.06;5101907;28;20043;-66
2021/05/27 10:28:04;;;;;;;23.00;7.57;;;;;;;11.13;81.14;101372.81;5101497;28;20422;-72
2021/05/27 10:30:36;;;;;;;15.65;6.65;;;;;;;11.11;81.09;101377.16;5108260;28;20428;-68
2021/05/27 10:33:04;;;;;;;16.63;6.65;;;;;;;10.92;82.03;101385.16;5103907;28;20091;-70
2021/05/27 10:35:45;;;;;;;13.68;5.90;;;;;;;10.86;81.05;101385.25;5101506;28;20134;-69
2021/05/27 10:38:11;;;;;;;13.55;5.60;;;;;;;10.82;81.36;101392.22;5104257;28;21797;-70
2021/05/27 10:40:39;;;;;;;19.35;7.80;;;;;;;10.86;82.52;101385.25;5097651;28;20558;-71
2021/05/27 10:43:16;;;;;;;14.93;7.55;;;;;;;10.81;82.67;101380.09;5100177;28;20051;-69
2021/05/27 10:46:04;;;;;;;16.67;7.57;;;;;;;10.79;82.87;101389.63;5098713;28;20596;-70
2021/05/27 10:48:38;;;;;;;14.25;6.53;;;;;;;10.77;82.17;101396.59;5098267;28;20072;-67
2021/05/27 10:51:11;;;;;;;13.82;6.18;;;;;;;10.80;81.92;101385.28;5103395;28;20447;-67
2021/05/27 10:53:54;;;;;;;15.90;6.13;;;;;;;10.85;82.06;101384.38;5105197;28;20111;-72
2021/05/27 10:56:22;;;;;;;11.27;5.82;;;;;;;10.87;81.65;101387.81;5104699;28;20136;-69
2021/05/27 10:59:14;;;;;;;14.40;5.75;;;;;;;10.95;81.92;101395.56;5103194;22;20051;-68
2021/05/27 11:01:52;;;;;;;12.27;5.72;;;;;;;10.98;81.69;101392.06;5074418;28;20059;-68
2021/05/27 11:04:27;;;;;;;14.98;6.25;;;;;;;11.02;81.72;101392.00;5077430;28;20048;-68
2021/05/27 11:07:17;;;;;;;17.50;5.78;;;;;;;10.86;81.67;101391.28;5083687;28;20473;-67
2021/05/27 11:09:46;;;;;;;12.70;5.85;;;;;;;10.89;82.03;101393.88;5077289;28;20052;-68
2021/05/27 11:12:18;;;;;;;15.75;5.13;;;;;;;10.96;82.55;101402.50;5070937;28;20051;-68
2021/05/27 11:14:47;;;;;;;14.15;6.18;;;;;;;11.06;82.67;101399.78;5075083;28;20575;-67
2021/05/27 11:17:30;;;;;;;14.05;6.05;;;;;;;11.06;81.60;101408.44;5073082;28;20055;-68
2021/05/27 11:20:00;;;;;;;13.35;5.05;;;;;;;10.92;81.08;101410.34;5070794;28;20053;-68